sensor_id;sensor_type;location;lat;lon;timestamp;pressure;altitude;pressure_sealevel;temperature;humidity
13974;BME280;7060;43.770;4.008;2023-01-09T00:01:41;100355.50;;;8.62;78.64
13974;BME280;7060;43.770;4.008;2023-01-09T00:04:11;100371.63;;;8.60;78.45
13974;BME280;7060;43.770;4.008;2023-01-09T00:06:40;100370.25;;;8.56;78.59
13974;BME280;7060;43.770;4.008;2023-01-09T00:09:09;100367.28;;;8.59;78.93
13974;BME280;7060;43.770;4.008;2023-01-09T00:11:38;100384.81;;;8.62;78.38
13974;BME280;7060;43.770;4.008;2023-01-09T00:14:06;100372.75;;;8.77;78.39
13974;BME280;7060;43.770;4.008;2023-01-09T00:16:37;100382.53;;;8.96;77.84
13974;BME280;7060;43.770;4.008;2023-01-09T00:19:05;100380.13;;;9.12;77.69
13974;BME280;7060;43.770;4.008;2023-01-09T00:21:36;100361.13;;;9.25;76.99
13974;BME280;7060;43.770;4.008;2023-01-09T00:24:05;100350.59;;;9.33;76.78
13974;BME280;7060;43.770;4.008;2023-01-09T00:26:34;100348.31;;;9.38;76.68
13974;BME280;7060;43.770;4.008;2023-01-09T00:29:05;100341.66;;;9.42;76.53
13974;BME280;7060;43.770;4.008;2023-01-09T00:31:34;100344.03;;;9.45;76.51
13974;BME280;7060;43.770;4.008;2023-01-09T00:34:05;100369.44;;;9.49;76.23
13974;BME280;7060;43.770;4.008;2023-01-09T00:36:37;100369.31;;;9.50;75.75
13974;BME280;7060;43.770;4.008;2023-01-09T00:39:06;100384.34;;;9.51;75.79
13974;BME280;7060;43.770;4.008;2023-01-09T00:41:36;100375.34;;;9.52;75.35
13974;BME280;7060;43.770;4.008;2023-01-09T00:44:09;100375.19;;;9.54;75.25
13974;BME280;7060;43.770;4.008;2023-01-09T00:46:42;100389.09;;;9.58;74.70
13974;BME280;7060;43.770;4.008;2023-01-09T00:49:12;100376.63;;;9.48;74.50
13974;BME280;7060;43.770;4.008;2023-01-09T00:51:44;100387.81;;;9.62;73.54
13974;BME280;7060;43.770;4.008;2023-01-09T00:54:14;100270.69;;;8.94;72.50
13974;BME280;7060;43.770;4.008;2023-01-09T00:56:43;100396.88;;;9.69;71.69
13974;BME280;7060;43.770;4.008;2023-01-09T00:59:12;100399.09;;;9.73;71.50
13974;BME280;7060;43.770;4.008;2023-01-09T01:01:41;100398.81;;;9.76;71.04
13974;BME280;7060;43.770;4.008;2023-01-09T01:04:09;100395.00;;;9.79;70.78
13974;BME280;7060;43.770;4.008;2023-01-09T01:06:56;100399.34;;;9.80;70.26
13974;BME280;7060;43.770;4.008;2023-01-09T01:09:42;100393.19;;;9.79;70.13
13974;BME280;7060;43.770;4.008;2023-01-09T01:12:10;100399.91;;;9.83;70.01
13974;BME280;7060;43.770;4.008;2023-01-09T01:14:39;100396.09;;;9.86;69.70
13974;BME280;7060;43.770;4.008;2023-01-09T01:17:08;100411.00;;;9.89;69.82
13974;BME280;7060;43.770;4.008;2023-01-09T01:19:36;100407.31;;;9.90;69.28
13974;BME280;7060;43.770;4.008;2023-01-09T01:22:06;100417.03;;;9.91;69.55
13974;BME280;7060;43.770;4.008;2023-01-09T01:24:35;100417.03;;;9.91;69.49
13974;BME280;7060;43.770;4.008;2023-01-09T01:27:03;100408.03;;;9.92;69.50
13974;BME280;7060;43.770;4.008;2023-01-09T01:29:32;100415.19;;;9.91;69.55
13974;BME280;7060;43.770;4.008;2023-01-09T01:32:01;100431.34;;;9.90;69.71
13974;BME280;7060;43.770;4.008;2023-01-09T01:34:29;100436.16;;;9.86;69.58
13974;BME280;7060;43.770;4.008;2023-01-09T01:36:58;100444.44;;;9.83;69.71
13974;BME280;7060;43.770;4.008;2023-01-09T01:39:28;100441.94;;;9.81;69.86
13974;BME280;7060;43.770;4.008;2023-01-09T01:41:56;100449.69;;;9.75;69.75
13974;BME280;7060;43.770;4.008;2023-01-09T01:44:55;100450.81;;;9.72;69.70
13974;BME280;7060;43.770;4.008;2023-01-09T01:47:29;100294.03;;;8.82;70.07
13974;BME280;7060;43.770;4.008;2023-01-09T01:50:02;100425.25;;;9.70;70.25
13974;BME280;7060;43.770;4.008;2023-01-09T01:52:31;100421.88;;;9.68;70.22
13974;BME280;7060;43.770;4.008;2023-01-09T01:55:06;100432.19;;;9.63;70.69
13974;BME280;7060;43.770;4.008;2023-01-09T01:57:36;100407.53;;;9.41;70.52
13974;BME280;7060;43.770;4.008;2023-01-09T02:00:08;100433.22;;;9.52;70.49
13974;BME280;7060;43.770;4.008;2023-01-09T02:02:45;100436.31;;;9.47;70.54
13974;BME280;7060;43.770;4.008;2023-01-09T02:05:13;100435.38;;;9.39;70.22
13974;BME280;7060;43.770;4.008;2023-01-09T02:07:42;100435.41;;;9.29;70.33
13974;BME280;7060;43.770;4.008;2023-01-09T02:10:13;100409.72;;;9.09;71.02
13974;BME280;7060;43.770;4.008;2023-01-09T02:12:42;100432.47;;;9.23;70.92
13974;BME280;7060;43.770;4.008;2023-01-09T02:15:12;100429.94;;;9.21;70.61
13974;BME280;7060;43.770;4.008;2023-01-09T02:20:47;100440.16;;;9.16;69.87
13974;BME280;7060;43.770;4.008;2023-01-09T02:23:45;100432.19;;;8.97;69.53
13974;BME280;7060;43.770;4.008;2023-01-09T02:26:33;100324.28;;;8.25;68.73
13974;BME280;7060;43.770;4.008;2023-01-09T02:29:36;100459.69;;;9.07;68.74
13974;BME280;7060;43.770;4.008;2023-01-09T02:32:17;100458.56;;;9.09;67.42
13974;BME280;7060;43.770;4.008;2023-01-09T02:34:52;100416.06;;;8.89;66.64
13974;BME280;7060;43.770;4.008;2023-01-09T02:37:34;100440.06;;;9.08;64.71
13974;BME280;7060;43.770;4.008;2023-01-09T02:40:08;100443.66;;;9.16;64.36
13974;BME280;7060;43.770;4.008;2023-01-09T02:42:40;100434.56;;;9.19;64.07
13974;BME280;7060;43.770;4.008;2023-01-09T02:45:10;100433.00;;;9.16;64.04
13974;BME280;7060;43.770;4.008;2023-01-09T02:47:41;100447.78;;;9.11;64.24
13974;BME280;7060;43.770;4.008;2023-01-09T02:50:14;100443.69;;;9.07;64.96
13974;BME280;7060;43.770;4.008;2023-01-09T02:53:02;100407.09;;;8.90;64.31
13974;BME280;7060;43.770;4.008;2023-01-09T02:55:44;100418.06;;;8.77;64.08
13974;BME280;7060;43.770;4.008;2023-01-09T02:58:24;100453.09;;;8.92;65.04
13974;BME280;7060;43.770;4.008;2023-01-09T03:01:05;100454.38;;;8.88;65.05
13974;BME280;7060;43.770;4.008;2023-01-09T03:03:45;100455.94;;;8.80;64.52
13974;BME280;7060;43.770;4.008;2023-01-09T03:06:19;100458.19;;;8.75;64.78
13974;BME280;7060;43.770;4.008;2023-01-09T03:08:55;100435.06;;;8.57;65.38
13974;BME280;7060;43.770;4.008;2023-01-09T03:11:27;100461.97;;;8.73;64.78
13974;BME280;7060;43.770;4.008;2023-01-09T03:14:03;100447.38;;;8.67;64.11
13974;BME280;7060;43.770;4.008;2023-01-09T03:16:35;100469.56;;;8.77;63.73
13974;BME280;7060;43.770;4.008;2023-01-09T03:19:10;100460.56;;;8.78;64.31
13974;BME280;7060;43.770;4.008;2023-01-09T03:21:41;100469.13;;;8.82;63.53
13974;BME280;7060;43.770;4.008;2023-01-09T03:24:09;100481.63;;;8.81;63.09
13974;BME280;7060;43.770;4.008;2023-01-09T03:26:38;100475.44;;;8.81;63.41
13974;BME280;7060;43.770;4.008;2023-01-09T03:29:07;100475.72;;;8.78;62.16
13974;BME280;7060;43.770;4.008;2023-01-09T03:31:36;100470.81;;;8.83;60.56
13974;BME280;7060;43.770;4.008;2023-01-09T03:34:06;100468.69;;;8.96;60.20
13974;BME280;7060;43.770;4.008;2023-01-09T03:36:35;100460.81;;;9.04;59.54
13974;BME280;7060;43.770;4.008;2023-01-09T03:39:03;100446.78;;;9.12;60.28
13974;BME280;7060;43.770;4.008;2023-01-09T03:41:31;100424.34;;;8.95;59.11
13974;BME280;7060;43.770;4.008;2023-01-09T03:44:00;100455.03;;;9.18;59.18
13974;BME280;7060;43.770;4.008;2023-01-09T03:46:28;100432.75;;;9.20;58.68
13974;BME280;7060;43.770;4.008;2023-01-09T03:48:57;100415.44;;;9.14;59.28
13974;BME280;7060;43.770;4.008;2023-01-09T03:51:27;100448.88;;;9.28;58.96
13974;BME280;7060;43.770;4.008;2023-01-09T03:53:55;100486.38;;;9.26;59.53
13974;BME280;7060;43.770;4.008;2023-01-09T03:56:24;100504.91;;;9.28;59.50
13974;BME280;7060;43.770;4.008;2023-01-09T03:58:52;100482.72;;;9.27;58.89
13974;BME280;7060;43.770;4.008;2023-01-09T04:01:20;100494.19;;;9.18;59.24
13974;BME280;7060;43.770;4.008;2023-01-09T04:03:49;100496.44;;;9.13;59.48
13974;BME280;7060;43.770;4.008;2023-01-09T04:06:17;100496.88;;;9.18;59.66
13974;BME280;7060;43.770;4.008;2023-01-09T04:08:47;100508.97;;;9.22;59.55
13974;BME280;7060;43.770;4.008;2023-01-09T04:11:16;100508.97;;;9.22;60.07
13974;BME280;7060;43.770;4.008;2023-01-09T04:13:44;100515.53;;;9.18;60.52
13974;BME280;7060;43.770;4.008;2023-01-09T04:16:13;100526.78;;;9.12;60.56
13974;BME280;7060;43.770;4.008;2023-01-09T04:18:41;100532.69;;;9.06;61.62
13974;BME280;7060;43.770;4.008;2023-01-09T04:21:10;100554.16;;;8.95;61.22
13974;BME280;7060;43.770;4.008;2023-01-09T04:23:38;100529.16;;;8.76;61.25
13974;BME280;7060;43.770;4.008;2023-01-09T04:26:08;100565.78;;;8.94;61.21
13974;BME280;7060;43.770;4.008;2023-01-09T04:28:36;100572.66;;;8.87;61.04
13974;BME280;7060;43.770;4.008;2023-01-09T04:31:05;100577.00;;;8.88;60.77
13974;BME280;7060;43.770;4.008;2023-01-09T04:33:33;100574.22;;;8.79;61.07
13974;BME280;7060;43.770;4.008;2023-01-09T04:36:02;100576.16;;;8.77;60.41
13974;BME280;7060;43.770;4.008;2023-01-09T04:38:31;100582.34;;;8.78;60.28
13974;BME280;7060;43.770;4.008;2023-01-09T04:40:59;100579.53;;;8.79;60.11
13974;BME280;7060;43.770;4.008;2023-01-09T04:43:29;100582.34;;;8.78;60.68
13974;BME280;7060;43.770;4.008;2023-01-09T04:45:57;100580.66;;;8.77;60.78
13974;BME280;7060;43.770;4.008;2023-01-09T04:48:26;100566.75;;;8.73;60.82
13974;BME280;7060;43.770;4.008;2023-01-09T04:50:54;100583.44;;;8.66;61.99
13974;BME280;7060;43.770;4.008;2023-01-09T04:53:23;100598.56;;;8.56;62.65
13974;BME280;7060;43.770;4.008;2023-01-09T04:55:51;100595.16;;;8.44;63.10
13974;BME280;7060;43.770;4.008;2023-01-09T04:58:19;100587.25;;;8.33;63.88
13974;BME280;7060;43.770;4.008;2023-01-09T05:00:50;100588.38;;;8.30;63.56
13974;BME280;7060;43.770;4.008;2023-01-09T05:03:19;100590.16;;;8.20;64.11
13974;BME280;7060;43.770;4.008;2023-01-09T05:05:49;100599.78;;;8.11;64.36
13974;BME280;7060;43.770;4.008;2023-01-09T05:08:17;100593.31;;;8.04;64.61
13974;BME280;7060;43.770;4.008;2023-01-09T05:10:45;100584.78;;;8.01;63.33
13974;BME280;7060;43.770;4.008;2023-01-09T05:13:14;100580.00;;;8.04;62.79
13974;BME280;7060;43.770;4.008;2023-01-09T05:15:42;100575.97;;;8.10;62.22
13974;BME280;7060;43.770;4.008;2023-01-09T05:18:12;100581.03;;;8.13;61.36
13974;BME280;7060;43.770;4.008;2023-01-09T05:20:41;100574.31;;;8.19;60.43
13974;BME280;7060;43.770;4.008;2023-01-09T05:23:09;100580.53;;;8.29;58.72
13974;BME280;7060;43.770;4.008;2023-01-09T05:25:38;100581.78;;;8.34;58.67
13974;BME280;7060;43.770;4.008;2023-01-09T05:28:06;100593.16;;;8.36;58.25
13974;BME280;7060;43.770;4.008;2023-01-09T05:30:34;100603.69;;;8.38;58.47
13974;BME280;7060;43.770;4.008;2023-01-09T05:33:03;100617.44;;;8.43;57.79
13974;BME280;7060;43.770;4.008;2023-01-09T05:35:33;100620.56;;;8.48;57.89
13974;BME280;7060;43.770;4.008;2023-01-09T05:38:01;100622.78;;;8.43;57.59
13974;BME280;7060;43.770;4.008;2023-01-09T05:40:30;100625.19;;;8.46;57.51
13974;BME280;7060;43.770;4.008;2023-01-09T05:43:06;100625.31;;;8.44;57.42
13974;BME280;7060;43.770;4.008;2023-01-09T05:45:34;100629.09;;;8.42;57.32
13974;BME280;7060;43.770;4.008;2023-01-09T05:48:03;100631.88;;;8.40;58.23
13974;BME280;7060;43.770;4.008;2023-01-09T05:50:33;100641.44;;;8.43;57.36
13974;BME280;7060;43.770;4.008;2023-01-09T05:53:01;100646.75;;;8.43;57.73
13974;BME280;7060;43.770;4.008;2023-01-09T05:55:30;100643.50;;;8.39;57.94
13974;BME280;7060;43.770;4.008;2023-01-09T05:57:58;100654.81;;;8.32;58.50
13974;BME280;7060;43.770;4.008;2023-01-09T06:00:27;100650.47;;;8.31;57.81
13974;BME280;7060;43.770;4.008;2023-01-09T06:02:55;100658.19;;;8.24;58.79
13974;BME280;7060;43.770;4.008;2023-01-09T06:05:23;100654.94;;;8.21;58.77
13974;BME280;7060;43.770;4.008;2023-01-09T06:07:53;100651.94;;;8.14;60.03
13974;BME280;7060;43.770;4.008;2023-01-09T06:10:22;100612.09;;;7.82;59.54
13974;BME280;7060;43.770;4.008;2023-01-09T06:12:50;100665.38;;;8.12;60.16
13974;BME280;7060;43.770;4.008;2023-01-09T06:15:20;100672.66;;;8.10;60.12
13974;BME280;7060;43.770;4.008;2023-01-09T06:17:49;100676.28;;;8.09;60.29
13974;BME280;7060;43.770;4.008;2023-01-09T06:20:17;100676.28;;;8.09;60.42
13974;BME280;7060;43.770;4.008;2023-01-09T06:22:46;100677.41;;;8.07;61.31
13974;BME280;7060;43.770;4.008;2023-01-09T06:25:19;100687.75;;;8.00;61.52
13974;BME280;7060;43.770;4.008;2023-01-09T06:27:48;100689.13;;;7.95;61.71
13974;BME280;7060;43.770;4.008;2023-01-09T06:30:18;100687.81;;;7.89;62.12
13974;BME280;7060;43.770;4.008;2023-01-09T06:32:47;100699.47;;;7.77;62.13
13974;BME280;7060;43.770;4.008;2023-01-09T06:35:16;100696.38;;;7.72;61.67
13974;BME280;7060;43.770;4.008;2023-01-09T06:37:47;100713.09;;;7.63;61.96
13974;BME280;7060;43.770;4.008;2023-01-09T06:40:16;100707.19;;;7.59;63.10
13974;BME280;7060;43.770;4.008;2023-01-09T06:42:46;100727.94;;;7.44;63.23
13974;BME280;7060;43.770;4.008;2023-01-09T06:45:15;100746.06;;;7.39;64.43
13974;BME280;7060;43.770;4.008;2023-01-09T06:47:43;100741.00;;;7.36;64.27
13974;BME280;7060;43.770;4.008;2023-01-09T06:50:12;100744.50;;;7.37;63.25
13974;BME280;7060;43.770;4.008;2023-01-09T06:52:40;100748.25;;;7.34;64.35
13974;BME280;7060;43.770;4.008;2023-01-09T06:55:09;100752.09;;;7.30;63.96
13974;BME280;7060;43.770;4.008;2023-01-09T06:57:37;100740.75;;;7.28;64.15
13974;BME280;7060;43.770;4.008;2023-01-09T07:00:09;100707.44;;;7.02;64.51
13974;BME280;7060;43.770;4.008;2023-01-09T07:02:37;100749.84;;;7.14;64.97
13974;BME280;7060;43.770;4.008;2023-01-09T07:05:06;100755.41;;;7.11;64.36
13974;BME280;7060;43.770;4.008;2023-01-09T07:07:38;100755.66;;;7.08;64.46
13974;BME280;7060;43.770;4.008;2023-01-09T07:10:08;100751.41;;;7.06;64.43
13974;BME280;7060;43.770;4.008;2023-01-09T07:12:36;100764.13;;;6.91;64.76
13974;BME280;7060;43.770;4.008;2023-01-09T07:15:07;100769.44;;;6.80;65.05
13974;BME280;7060;43.770;4.008;2023-01-09T07:17:36;100771.13;;;6.70;65.57
13974;BME280;7060;43.770;4.008;2023-01-09T07:20:05;100779.72;;;6.62;65.03
13974;BME280;7060;43.770;4.008;2023-01-09T07:22:35;100777.63;;;6.55;65.54
13974;BME280;7060;43.770;4.008;2023-01-09T07:25:04;100780.91;;;6.58;65.55
13974;BME280;7060;43.770;4.008;2023-01-09T07:27:32;100780.44;;;6.64;65.52
13974;BME280;7060;43.770;4.008;2023-01-09T07:30:01;100779.31;;;6.67;65.41
13974;BME280;7060;43.770;4.008;2023-01-09T07:32:31;100779.47;;;6.76;65.84
13974;BME280;7060;43.770;4.008;2023-01-09T07:34:59;100775.22;;;6.74;65.38
13974;BME280;7060;43.770;4.008;2023-01-09T07:37:28;100776.06;;;6.74;65.77
13974;BME280;7060;43.770;4.008;2023-01-09T07:39:56;100786.22;;;6.80;65.03
13974;BME280;7060;43.770;4.008;2023-01-09T07:42:24;100782.13;;;6.88;65.47
13974;BME280;7060;43.770;4.008;2023-01-09T07:44:53;100786.69;;;6.97;64.97
13974;BME280;7060;43.770;4.008;2023-01-09T07:47:21;100784.75;;;6.99;64.33
13974;BME280;7060;43.770;4.008;2023-01-09T07:49:51;100797.09;;;7.00;64.96
13974;BME280;7060;43.770;4.008;2023-01-09T07:52:19;100796.13;;;7.01;65.05
13974;BME280;7060;43.770;4.008;2023-01-09T07:54:48;100787.44;;;7.10;64.46
13974;BME280;7060;43.770;4.008;2023-01-09T07:57:16;100781.38;;;7.19;64.08
13974;BME280;7060;43.770;4.008;2023-01-09T07:59:44;100783.41;;;7.27;64.94
13974;BME280;7060;43.770;4.008;2023-01-09T08:02:13;100783.69;;;7.35;64.74
13974;BME280;7060;43.770;4.008;2023-01-09T08:04:41;100772.97;;;7.57;64.82
13974;BME280;7060;43.770;4.008;2023-01-09T08:07:12;100770.81;;;7.83;64.64
13974;BME280;7060;43.770;4.008;2023-01-09T08:09:41;100769.56;;;7.98;64.83
13974;BME280;7060;43.770;4.008;2023-01-09T08:12:09;100776.13;;;8.15;63.95
13974;BME280;7060;43.770;4.008;2023-01-09T08:14:38;100780.16;;;8.30;64.50
13974;BME280;7060;43.770;4.008;2023-01-09T08:17:06;100791.22;;;8.46;63.84
13974;BME280;7060;43.770;4.008;2023-01-09T08:19:35;100786.19;;;8.53;63.02
13974;BME280;7060;43.770;4.008;2023-01-09T08:22:03;100787.63;;;8.57;63.33
13974;BME280;7060;43.770;4.008;2023-01-09T08:24:33;100795.22;;;8.62;62.98
13974;BME280;7060;43.770;4.008;2023-01-09T08:27:02;100799.16;;;8.67;62.96
13974;BME280;7060;43.770;4.008;2023-01-09T08:29:31;100805.41;;;8.77;62.38
13974;BME280;7060;43.770;4.008;2023-01-09T08:31:59;100814.03;;;8.91;62.22
13974;BME280;7060;43.770;4.008;2023-01-09T08:34:27;100815.50;;;9.04;61.66
13974;BME280;7060;43.770;4.008;2023-01-09T08:36:56;100814.53;;;9.15;62.08
13974;BME280;7060;43.770;4.008;2023-01-09T08:39:25;100826.47;;;9.41;61.54
13974;BME280;7060;43.770;4.008;2023-01-09T08:41:55;100818.50;;;9.70;61.11
13974;BME280;7060;43.770;4.008;2023-01-09T08:44:40;100819.97;;;10.03;59.47
13974;BME280;7060;43.770;4.008;2023-01-09T08:47:26;100809.13;;;10.34;57.94
13974;BME280;7060;43.770;4.008;2023-01-09T08:49:59;100825.69;;;10.66;56.79
13974;BME280;7060;43.770;4.008;2023-01-09T08:52:28;100819.72;;;10.92;55.09
13974;BME280;7060;43.770;4.008;2023-01-09T08:54:57;100824.69;;;11.14;53.45
13974;BME280;7060;43.770;4.008;2023-01-09T08:57:26;100832.75;;;11.41;53.08
13974;BME280;7060;43.770;4.008;2023-01-09T08:59:55;100841.56;;;11.51;51.95
13974;BME280;7060;43.770;4.008;2023-01-09T09:02:23;100852.53;;;11.58;51.92
13974;BME280;7060;43.770;4.008;2023-01-09T09:04:52;100841.22;;;11.64;50.82
13974;BME280;7060;43.770;4.008;2023-01-09T09:07:22;100844.66;;;11.57;51.18
13974;BME280;7060;43.770;4.008;2023-01-09T09:09:53;100845.66;;;11.56;51.09
13974;BME280;7060;43.770;4.008;2023-01-09T09:12:22;100853.69;;;11.56;51.92
13974;BME280;7060;43.770;4.008;2023-01-09T09:14:51;100860.63;;;11.48;51.53
13974;BME280;7060;43.770;4.008;2023-01-09T09:17:37;100866.06;;;11.29;51.63
13974;BME280;7060;43.770;4.008;2023-01-09T09:20:08;100853.72;;;11.09;52.54
13974;BME280;7060;43.770;4.008;2023-01-09T09:22:37;100858.50;;;11.15;52.59
13974;BME280;7060;43.770;4.008;2023-01-09T09:25:06;100868.59;;;11.31;52.99
13974;BME280;7060;43.770;4.008;2023-01-09T09:27:34;100873.94;;;11.31;52.79
13974;BME280;7060;43.770;4.008;2023-01-09T09:30:07;100757.72;;;10.59;52.17
13974;BME280;7060;43.770;4.008;2023-01-09T09:32:35;100875.66;;;11.22;52.12
13974;BME280;7060;43.770;4.008;2023-01-09T09:35:04;100874.75;;;11.31;52.91
13974;BME280;7060;43.770;4.008;2023-01-09T09:37:33;100876.56;;;11.40;52.21
13974;BME280;7060;43.770;4.008;2023-01-09T09:40:03;100886.41;;;11.49;52.21
13974;BME280;7060;43.770;4.008;2023-01-09T09:42:59;100895.53;;;11.57;51.62
13974;BME280;7060;43.770;4.008;2023-01-09T09:45:54;100811.53;;;11.03;51.09
13974;BME280;7060;43.770;4.008;2023-01-09T09:48:34;100899.50;;;11.52;51.52
13974;BME280;7060;43.770;4.008;2023-01-09T09:51:20;100870.78;;;11.45;51.71
13974;BME280;7060;43.770;4.008;2023-01-09T09:53:54;100786.75;;;11.01;51.39
13974;BME280;7060;43.770;4.008;2023-01-09T09:56:29;100849.22;;;11.46;49.45
13974;BME280;7060;43.770;4.008;2023-01-09T09:59:01;100764.69;;;10.89;50.51
13974;BME280;7060;43.770;4.008;2023-01-09T10:01:37;100895.72;;;11.73;50.32
13974;BME280;7060;43.770;4.008;2023-01-09T10:04:10;100890.47;;;11.81;50.19
13974;BME280;7060;43.770;4.008;2023-01-09T10:06:41;100757.09;;;11.12;49.13
13974;BME280;7060;43.770;4.008;2023-01-09T10:09:17;100868.03;;;11.82;48.56
13974;BME280;7060;43.770;4.008;2023-01-09T10:11:56;100880.22;;;11.94;48.95
13974;BME280;7060;43.770;4.008;2023-01-09T10:14:27;100900.84;;;12.11;48.11
13974;BME280;7060;43.770;4.008;2023-01-09T10:17:06;100900.25;;;12.17;48.07
13974;BME280;7060;43.770;4.008;2023-01-09T10:19:55;100905.69;;;12.26;48.45
13974;BME280;7060;43.770;4.008;2023-01-09T10:22:36;100908.91;;;12.29;47.98
13974;BME280;7060;43.770;4.008;2023-01-09T10:25:20;100913.38;;;12.38;47.93
13974;BME280;7060;43.770;4.008;2023-01-09T10:28:05;100905.84;;;12.42;47.46
13974;BME280;7060;43.770;4.008;2023-01-09T10:30:41;100902.81;;;12.37;47.05
13974;BME280;7060;43.770;4.008;2023-01-09T10:33:23;100896.13;;;12.41;47.00
13974;BME280;7060;43.770;4.008;2023-01-09T10:36:13;100899.34;;;12.44;46.38
13974;BME280;7060;43.770;4.008;2023-01-09T10:38:46;100903.25;;;12.50;46.16
13974;BME280;7060;43.770;4.008;2023-01-09T10:41:20;100889.22;;;12.56;46.55
13974;BME280;7060;43.770;4.008;2023-01-09T10:43:52;100756.84;;;11.78;45.83
13974;BME280;7060;43.770;4.008;2023-01-09T10:46:27;100891.50;;;12.69;46.70
13974;BME280;7060;43.770;4.008;2023-01-09T10:49:00;100870.94;;;12.77;46.86
13974;BME280;7060;43.770;4.008;2023-01-09T10:51:34;100745.41;;;12.11;46.71
13974;BME280;7060;43.770;4.008;2023-01-09T10:54:11;100855.28;;;12.91;45.43
13974;BME280;7060;43.770;4.008;2023-01-09T10:56:43;100845.72;;;12.96;45.30
13974;BME280;7060;43.770;4.008;2023-01-09T10:59:14;100852.63;;;12.99;45.67
13974;BME280;7060;43.770;4.008;2023-01-09T11:01:44;100827.59;;;12.90;45.71
13974;BME280;7060;43.770;4.008;2023-01-09T11:04:22;100849.69;;;13.10;45.22
13974;BME280;7060;43.770;4.008;2023-01-09T11:06:55;100843.00;;;13.14;45.40
13974;BME280;7060;43.770;4.008;2023-01-09T11:09:26;100844.47;;;13.08;45.09
13974;BME280;7060;43.770;4.008;2023-01-09T11:11:54;100840.78;;;13.09;45.85
13974;BME280;7060;43.770;4.008;2023-01-09T11:14:24;100844.53;;;13.16;45.49
13974;BME280;7060;43.770;4.008;2023-01-09T11:16:58;100825.00;;;13.06;45.23
13974;BME280;7060;43.770;4.008;2023-01-09T11:19:30;100846.91;;;13.19;44.38
13974;BME280;7060;43.770;4.008;2023-01-09T11:22:06;100851.28;;;13.20;44.50
13974;BME280;7060;43.770;4.008;2023-01-09T11:24:35;100848.44;;;13.22;44.72
13974;BME280;7060;43.770;4.008;2023-01-09T11:27:21;100810.28;;;13.10;44.85
13974;BME280;7060;43.770;4.008;2023-01-09T11:30:12;100854.81;;;13.29;43.85
13974;BME280;7060;43.770;4.008;2023-01-09T11:32:42;100844.91;;;13.21;44.36
13974;BME280;7060;43.770;4.008;2023-01-09T11:35:20;100853.13;;;13.28;43.40
13974;BME280;7060;43.770;4.008;2023-01-09T11:37:58;100857.13;;;13.16;43.56
13974;BME280;7060;43.770;4.008;2023-01-09T11:40:28;100859.66;;;13.26;43.54
13974;BME280;7060;43.770;4.008;2023-01-09T11:43:07;100829.53;;;13.06;43.44
13974;BME280;7060;43.770;4.008;2023-01-09T11:45:44;100727.41;;;12.47;43.80
13974;BME280;7060;43.770;4.008;2023-01-09T11:48:39;100844.41;;;13.26;44.24
13974;BME280;7060;43.770;4.008;2023-01-09T11:51:20;100851.28;;;13.20;43.47
13974;BME280;7060;43.770;4.008;2023-01-09T11:54:11;100843.84;;;13.14;42.35
13974;BME280;7060;43.770;4.008;2023-01-09T11:56:41;100827.44;;;12.92;43.31
13974;BME280;7060;43.770;4.008;2023-01-09T11:59:11;100838.38;;;12.98;43.46
13974;BME280;7060;43.770;4.008;2023-01-09T12:01:51;100856.69;;;13.03;43.79
13974;BME280;7060;43.770;4.008;2023-01-09T12:04:26;100876.09;;;12.97;44.19
13974;BME280;7060;43.770;4.008;2023-01-09T12:07:33;100882.47;;;12.96;44.30
13974;BME280;7060;43.770;4.008;2023-01-09T12:10:18;100865.50;;;12.69;44.52
13974;BME280;7060;43.770;4.008;2023-01-09T12:12:57;100869.09;;;12.78;44.32
13974;BME280;7060;43.770;4.008;2023-01-09T12:15:36;100879.47;;;12.73;44.86
13974;BME280;7060;43.770;4.008;2023-01-09T12:18:32;100858.03;;;12.55;44.96
13974;BME280;7060;43.770;4.008;2023-01-09T12:21:18;100848.78;;;12.49;44.96
13974;BME280;7060;43.770;4.008;2023-01-09T12:24:03;100870.75;;;12.53;45.43
13974;BME280;7060;43.770;4.008;2023-01-09T12:26:41;100864.41;;;12.54;46.44
13974;BME280;7060;43.770;4.008;2023-01-09T12:29:28;100865.00;;;12.48;45.47
13974;BME280;7060;43.770;4.008;2023-01-09T12:32:12;100824.97;;;12.29;45.45
13974;BME280;7060;43.770;4.008;2023-01-09T12:34:53;100826.13;;;12.26;45.99
13974;BME280;7060;43.770;4.008;2023-01-09T12:37:41;100818.53;;;12.21;46.08
13974;BME280;7060;43.770;4.008;2023-01-09T12:40:29;100826.06;;;12.36;47.64
13974;BME280;7060;43.770;4.008;2023-01-09T12:43:09;100812.56;;;12.28;46.73
13974;BME280;7060;43.770;4.008;2023-01-09T12:45:49;100821.22;;;12.21;47.13
13974;BME280;7060;43.770;4.008;2023-01-09T12:48:34;100828.16;;;12.14;46.71
13974;BME280;7060;43.770;4.008;2023-01-09T12:51:23;100839.38;;;12.10;47.27
13974;BME280;7060;43.770;4.008;2023-01-09T12:53:59;100848.94;;;12.12;47.88
13974;BME280;7060;43.770;4.008;2023-01-09T12:56:34;100835.00;;;12.09;47.56
13974;BME280;7060;43.770;4.008;2023-01-09T12:59:13;100836.28;;;12.05;47.27
13974;BME280;7060;43.770;4.008;2023-01-09T13:01:48;100836.44;;;12.03;47.59
13974;BME280;7060;43.770;4.008;2023-01-09T13:04:22;100857.63;;;11.97;47.51
13974;BME280;7060;43.770;4.008;2023-01-09T13:06:55;100875.59;;;11.86;47.93
13974;BME280;7060;43.770;4.008;2023-01-09T13:09:28;100894.44;;;11.77;48.06
13974;BME280;7060;43.770;4.008;2023-01-09T13:12:03;100883.44;;;11.52;49.63
13974;BME280;7060;43.770;4.008;2023-01-09T13:14:48;100810.16;;;10.79;50.71
13974;BME280;7060;43.770;4.008;2023-01-09T13:17:24;100920.50;;;11.47;51.57
13974;BME280;7060;43.770;4.008;2023-01-09T13:19:55;100908.28;;;11.35;51.46
13974;BME280;7060;43.770;4.008;2023-01-09T13:22:25;100905.88;;;11.32;51.49
13974;BME280;7060;43.770;4.008;2023-01-09T13:25:07;100887.47;;;11.29;51.14
13974;BME280;7060;43.770;4.008;2023-01-09T13:27:48;100869.19;;;11.25;49.87
13974;BME280;7060;43.770;4.008;2023-01-09T13:30:42;100749.34;;;10.35;49.77
13974;BME280;7060;43.770;4.008;2023-01-09T13:33:18;100920.50;;;11.01;49.95
13974;BME280;7060;43.770;4.008;2023-01-09T13:35:51;100913.47;;;10.90;50.11
13974;BME280;7060;43.770;4.008;2023-01-09T13:38:21;100908.56;;;10.95;49.27
13974;BME280;7060;43.770;4.008;2023-01-09T13:41:07;100921.22;;;11.03;48.38